Standard, Canada
Current Conditions -  °F | °C
As of 7:00 AM on Monday 24 Nov 2014 (Local Time) from CYYC Reporting Station
Scattered Clouds Scattered Clouds  
Wind Chill: 28°   Ceiling: Unl
Heat Index: 28°   Visibility: 15mi
Dew Point: 19°   Wind: 3mph
Humidity: 69%   Direction: 260°W
Pressure: 29.98"   Gusts: NA
Location:  51.12°N, 112.98°W
Report Text: CYYC 241400Z 26003KT 250V360 15SM FEW090 SCT120 M02/M07 A2998 RMK AC2AC1 VIRGA E SLP197
Loading
Personal Weather Stations






























Interactive Weather Map New forecast layout! Learn more

10-Day Weather Forecast

Advertisements
Track Severe Weather on mobile